sensor_id;sensor_type;location;lat;lon;timestamp;P1;durP1;ratioP1;P2;durP2;ratioP2
22632;SDS011;11483;55.828;37.488;2023-04-24T00:00:54;13.27;;;6.82;;
22632;SDS011;11483;55.828;37.488;2023-04-24T00:03:26;12.25;;;7.20;;
22632;SDS011;11483;55.828;37.488;2023-04-24T00:05:53;18.40;;;6.68;;
22632;SDS011;11483;55.828;37.488;2023-04-24T00:08:19;21.48;;;7.32;;
22632;SDS011;11483;55.828;37.488;2023-04-24T00:10:45;16.02;;;7.43;;
22632;SDS011;11483;55.828;37.488;2023-04-24T00:13:11;16.55;;;8.23;;
22632;SDS011;11483;55.828;37.488;2023-04-24T00:15:37;14.27;;;7.20;;
22632;SDS011;11483;55.828;37.488;2023-04-24T00:18:03;13.38;;;7.25;;
22632;SDS011;11483;55.828;37.488;2023-04-24T00:20:29;17.17;;;7.82;;
22632;SDS011;11483;55.828;37.488;2023-04-24T00:22:57;15.18;;;8.30;;
22632;SDS011;11483;55.828;37.488;2023-04-24T00:25:23;13.43;;;7.13;;
22632;SDS011;11483;55.828;37.488;2023-04-24T00:27:49;17.25;;;7.40;;
22632;SDS011;11483;55.828;37.488;2023-04-24T00:30:15;15.88;;;7.35;;
22632;SDS011;11483;55.828;37.488;2023-04-24T00:32:41;15.70;;;7.70;;
22632;SDS011;11483;55.828;37.488;2023-04-24T00:35:07;18.08;;;7.30;;
22632;SDS011;11483;55.828;37.488;2023-04-24T00:37:33;11.43;;;6.55;;
22632;SDS011;11483;55.828;37.488;2023-04-24T00:39:59;17.27;;;7.55;;
22632;SDS011;11483;55.828;37.488;2023-04-24T00:42:25;14.10;;;7.85;;
22632;SDS011;11483;55.828;37.488;2023-04-24T00:44:51;14.90;;;7.43;;
22632;SDS011;11483;55.828;37.488;2023-04-24T00:47:17;18.58;;;8.73;;
22632;SDS011;11483;55.828;37.488;2023-04-24T00:49:44;19.73;;;8.10;;
22632;SDS011;11483;55.828;37.488;2023-04-24T00:52:10;22.15;;;7.93;;
22632;SDS011;11483;55.828;37.488;2023-04-24T00:54:37;18.63;;;8.20;;
22632;SDS011;11483;55.828;37.488;2023-04-24T00:57:03;16.83;;;8.15;;
22632;SDS011;11483;55.828;37.488;2023-04-24T00:59:29;21.02;;;9.43;;
22632;SDS011;11483;55.828;37.488;2023-04-24T01:01:56;19.27;;;9.73;;
22632;SDS011;11483;55.828;37.488;2023-04-24T01:04:23;15.10;;;9.02;;
22632;SDS011;11483;55.828;37.488;2023-04-24T01:06:51;18.92;;;9.82;;
22632;SDS011;11483;55.828;37.488;2023-04-24T01:09:18;16.48;;;8.45;;
22632;SDS011;11483;55.828;37.488;2023-04-24T01:11:44;15.90;;;8.27;;
22632;SDS011;11483;55.828;37.488;2023-04-24T01:14:10;17.02;;;8.23;;
22632;SDS011;11483;55.828;37.488;2023-04-24T01:16:36;19.55;;;8.57;;
22632;SDS011;11483;55.828;37.488;2023-04-24T01:19:03;13.65;;;8.60;;
22632;SDS011;11483;55.828;37.488;2023-04-24T01:21:31;17.17;;;9.55;;
22632;SDS011;11483;55.828;37.488;2023-04-24T01:24:01;18.85;;;9.48;;
22632;SDS011;11483;55.828;37.488;2023-04-24T01:26:28;23.75;;;10.25;;
22632;SDS011;11483;55.828;37.488;2023-04-24T01:28:54;21.95;;;10.05;;
22632;SDS011;11483;55.828;37.488;2023-04-24T01:31:21;18.15;;;9.93;;
22632;SDS011;11483;55.828;37.488;2023-04-24T01:33:47;19.92;;;10.05;;
22632;SDS011;11483;55.828;37.488;2023-04-24T01:36:13;17.83;;;10.25;;
22632;SDS011;11483;55.828;37.488;2023-04-24T01:38:39;19.80;;;10.27;;
22632;SDS011;11483;55.828;37.488;2023-04-24T01:41:05;38.42;;;10.55;;
22632;SDS011;11483;55.828;37.488;2023-04-24T01:43:31;17.25;;;10.32;;
22632;SDS011;11483;55.828;37.488;2023-04-24T01:45:57;22.45;;;9.07;;
22632;SDS011;11483;55.828;37.488;2023-04-24T01:48:23;18.00;;;10.05;;
22632;SDS011;11483;55.828;37.488;2023-04-24T01:50:49;23.27;;;9.57;;
22632;SDS011;11483;55.828;37.488;2023-04-24T01:53:15;16.05;;;9.63;;
22632;SDS011;11483;55.828;37.488;2023-04-24T01:55:41;23.85;;;9.48;;
22632;SDS011;11483;55.828;37.488;2023-04-24T01:58:07;16.70;;;9.23;;
22632;SDS011;11483;55.828;37.488;2023-04-24T02:00:33;27.83;;;9.25;;
22632;SDS011;11483;55.828;37.488;2023-04-24T02:02:59;16.95;;;9.45;;
22632;SDS011;11483;55.828;37.488;2023-04-24T02:05:27;16.35;;;8.55;;
22632;SDS011;11483;55.828;37.488;2023-04-24T02:07:53;26.80;;;10.07;;
22632;SDS011;11483;55.828;37.488;2023-04-24T02:10:18;15.73;;;9.32;;
22632;SDS011;11483;55.828;37.488;2023-04-24T02:12:44;19.67;;;9.02;;
22632;SDS011;11483;55.828;37.488;2023-04-24T02:15:10;20.88;;;9.32;;
22632;SDS011;11483;55.828;37.488;2023-04-24T02:17:37;23.02;;;10.10;;
22632;SDS011;11483;55.828;37.488;2023-04-24T02:20:04;21.70;;;8.50;;
22632;SDS011;11483;55.828;37.488;2023-04-24T02:22:31;15.25;;;8.25;;
22632;SDS011;11483;55.828;37.488;2023-04-24T02:24:57;14.73;;;7.55;;
22632;SDS011;11483;55.828;37.488;2023-04-24T02:27:23;15.30;;;8.50;;
22632;SDS011;11483;55.828;37.488;2023-04-24T02:29:49;22.85;;;7.97;;
22632;SDS011;11483;55.828;37.488;2023-04-24T02:32:15;13.10;;;8.00;;
22632;SDS011;11483;55.828;37.488;2023-04-24T02:34:41;16.20;;;8.20;;
22632;SDS011;11483;55.828;37.488;2023-04-24T02:37:07;14.25;;;7.53;;
22632;SDS011;11483;55.828;37.488;2023-04-24T02:39:32;14.38;;;8.00;;
22632;SDS011;11483;55.828;37.488;2023-04-24T02:41:58;15.95;;;7.82;;
22632;SDS011;11483;55.828;37.488;2023-04-24T02:44:25;14.80;;;7.05;;
22632;SDS011;11483;55.828;37.488;2023-04-24T02:46:50;14.88;;;7.88;;
22632;SDS011;11483;55.828;37.488;2023-04-24T02:49:16;11.07;;;6.95;;
22632;SDS011;11483;55.828;37.488;2023-04-24T02:51:42;12.68;;;6.60;;
22632;SDS011;11483;55.828;37.488;2023-04-24T02:54:08;9.70;;;6.10;;
22632;SDS011;11483;55.828;37.488;2023-04-24T02:56:37;15.90;;;6.07;;
22632;SDS011;11483;55.828;37.488;2023-04-24T02:59:02;10.43;;;6.50;;
22632;SDS011;11483;55.828;37.488;2023-04-24T03:01:29;11.65;;;6.00;;
22632;SDS011;11483;55.828;37.488;2023-04-24T03:03:55;12.70;;;6.30;;
22632;SDS011;11483;55.828;37.488;2023-04-24T03:06:20;18.02;;;7.22;;
22632;SDS011;11483;55.828;37.488;2023-04-24T03:08:46;18.13;;;7.00;;
22632;SDS011;11483;55.828;37.488;2023-04-24T03:11:12;12.43;;;6.90;;
22632;SDS011;11483;55.828;37.488;2023-04-24T03:13:38;15.02;;;6.82;;
22632;SDS011;11483;55.828;37.488;2023-04-24T03:16:04;12.57;;;6.47;;
22632;SDS011;11483;55.828;37.488;2023-04-24T03:18:30;12.93;;;7.40;;
22632;SDS011;11483;55.828;37.488;2023-04-24T03:20:56;17.10;;;7.50;;
22632;SDS011;11483;55.828;37.488;2023-04-24T03:23:22;14.30;;;6.97;;
22632;SDS011;11483;55.828;37.488;2023-04-24T03:25:48;12.43;;;6.82;;
22632;SDS011;11483;55.828;37.488;2023-04-24T03:28:14;13.80;;;7.60;;
22632;SDS011;11483;55.828;37.488;2023-04-24T03:30:40;13.95;;;6.95;;
22632;SDS011;11483;55.828;37.488;2023-04-24T03:33:06;14.73;;;7.40;;
22632;SDS011;11483;55.828;37.488;2023-04-24T03:35:32;11.02;;;6.70;;
22632;SDS011;11483;55.828;37.488;2023-04-24T03:37:58;17.30;;;7.93;;
22632;SDS011;11483;55.828;37.488;2023-04-24T03:40:23;19.30;;;7.68;;
22632;SDS011;11483;55.828;37.488;2023-04-24T03:42:49;16.33;;;7.07;;
22632;SDS011;11483;55.828;37.488;2023-04-24T03:45:15;18.58;;;8.93;;
22632;SDS011;11483;55.828;37.488;2023-04-24T03:47:41;11.20;;;7.22;;
22632;SDS011;11483;55.828;37.488;2023-04-24T03:50:07;16.98;;;7.85;;
22632;SDS011;11483;55.828;37.488;2023-04-24T03:52:33;17.33;;;9.20;;
22632;SDS011;11483;55.828;37.488;2023-04-24T03:54:59;12.65;;;8.02;;
22632;SDS011;11483;55.828;37.488;2023-04-24T03:57:24;14.65;;;8.50;;
22632;SDS011;11483;55.828;37.488;2023-04-24T03:59:50;17.77;;;9.23;;
22632;SDS011;11483;55.828;37.488;2023-04-24T04:02:18;20.75;;;9.02;;
22632;SDS011;11483;55.828;37.488;2023-04-24T04:04:44;20.80;;;8.18;;
22632;SDS011;11483;55.828;37.488;2023-04-24T04:07:10;15.02;;;8.57;;
22632;SDS011;11483;55.828;37.488;2023-04-24T04:09:36;18.58;;;8.80;;
22632;SDS011;11483;55.828;37.488;2023-04-24T04:12:02;18.25;;;9.30;;
22632;SDS011;11483;55.828;37.488;2023-04-24T04:14:28;18.33;;;8.90;;
22632;SDS011;11483;55.828;37.488;2023-04-24T04:16:54;13.55;;;8.55;;
22632;SDS011;11483;55.828;37.488;2023-04-24T04:19:19;18.08;;;8.65;;
22632;SDS011;11483;55.828;37.488;2023-04-24T04:21:45;28.63;;;8.70;;
22632;SDS011;11483;55.828;37.488;2023-04-24T04:24:15;19.25;;;9.65;;
22632;SDS011;11483;55.828;37.488;2023-04-24T04:26:41;17.27;;;8.48;;
22632;SDS011;11483;55.828;37.488;2023-04-24T04:29:12;16.85;;;8.93;;
22632;SDS011;11483;55.828;37.488;2023-04-24T04:31:39;19.52;;;8.68;;
22632;SDS011;11483;55.828;37.488;2023-04-24T04:34:05;24.00;;;8.38;;
22632;SDS011;11483;55.828;37.488;2023-04-24T04:36:31;16.33;;;8.40;;
22632;SDS011;11483;55.828;37.488;2023-04-24T04:38:56;18.52;;;8.80;;
22632;SDS011;11483;55.828;37.488;2023-04-24T04:41:24;15.68;;;8.60;;
22632;SDS011;11483;55.828;37.488;2023-04-24T04:43:50;22.75;;;8.80;;
22632;SDS011;11483;55.828;37.488;2023-04-24T04:46:17;18.00;;;8.38;;
22632;SDS011;11483;55.828;37.488;2023-04-24T04:48:43;18.98;;;8.57;;
22632;SDS011;11483;55.828;37.488;2023-04-24T04:51:09;22.05;;;9.02;;
22632;SDS011;11483;55.828;37.488;2023-04-24T04:53:35;20.50;;;8.35;;
22632;SDS011;11483;55.828;37.488;2023-04-24T04:56:01;19.77;;;8.77;;
22632;SDS011;11483;55.828;37.488;2023-04-24T04:58:27;17.52;;;8.77;;
22632;SDS011;11483;55.828;37.488;2023-04-24T05:00:53;30.42;;;8.95;;
22632;SDS011;11483;55.828;37.488;2023-04-24T05:03:19;17.45;;;8.60;;
22632;SDS011;11483;55.828;37.488;2023-04-24T05:05:44;24.58;;;9.95;;
22632;SDS011;11483;55.828;37.488;2023-04-24T05:08:10;18.40;;;8.30;;
22632;SDS011;11483;55.828;37.488;2023-04-24T05:10:36;19.52;;;8.50;;
22632;SDS011;11483;55.828;37.488;2023-04-24T05:13:02;20.20;;;9.13;;
22632;SDS011;11483;55.828;37.488;2023-04-24T05:15:29;20.52;;;7.75;;
22632;SDS011;11483;55.828;37.488;2023-04-24T05:17:55;16.42;;;8.02;;
22632;SDS011;11483;55.828;37.488;2023-04-24T05:20:21;20.58;;;8.23;;
22632;SDS011;11483;55.828;37.488;2023-04-24T05:22:47;18.48;;;7.85;;
22632;SDS011;11483;55.828;37.488;2023-04-24T05:25:13;16.17;;;7.88;;
22632;SDS011;11483;55.828;37.488;2023-04-24T05:27:40;17.60;;;7.63;;
22632;SDS011;11483;55.828;37.488;2023-04-24T05:30:06;17.80;;;7.38;;
22632;SDS011;11483;55.828;37.488;2023-04-24T05:32:32;15.70;;;7.72;;
22632;SDS011;11483;55.828;37.488;2023-04-24T05:34:58;16.25;;;7.82;;
22632;SDS011;11483;55.828;37.488;2023-04-24T05:37:24;15.15;;;8.32;;
22632;SDS011;11483;55.828;37.488;2023-04-24T05:39:50;15.85;;;7.88;;
22632;SDS011;11483;55.828;37.488;2023-04-24T05:42:16;17.98;;;7.00;;
22632;SDS011;11483;55.828;37.488;2023-04-24T05:44:42;29.38;;;8.18;;
22632;SDS011;11483;55.828;37.488;2023-04-24T05:47:08;14.82;;;6.72;;
22632;SDS011;11483;55.828;37.488;2023-04-24T05:49:34;17.00;;;7.15;;
22632;SDS011;11483;55.828;37.488;2023-04-24T05:52:00;22.98;;;8.02;;
22632;SDS011;11483;55.828;37.488;2023-04-24T05:54:26;14.80;;;6.95;;
22632;SDS011;11483;55.828;37.488;2023-04-24T05:56:52;10.88;;;6.82;;
22632;SDS011;11483;55.828;37.488;2023-04-24T05:59:19;22.60;;;7.95;;
22632;SDS011;11483;55.828;37.488;2023-04-24T06:01:45;22.00;;;9.75;;
22632;SDS011;11483;55.828;37.488;2023-04-24T06:04:11;16.38;;;8.25;;
22632;SDS011;11483;55.828;37.488;2023-04-24T06:06:38;20.77;;;7.97;;
22632;SDS011;11483;55.828;37.488;2023-04-24T06:09:05;13.43;;;7.80;;
22632;SDS011;11483;55.828;37.488;2023-04-24T06:11:30;17.60;;;7.55;;
22632;SDS011;11483;55.828;37.488;2023-04-24T06:13:56;16.77;;;7.97;;
22632;SDS011;11483;55.828;37.488;2023-04-24T06:16:22;11.60;;;7.28;;
22632;SDS011;11483;55.828;37.488;2023-04-24T06:18:48;20.88;;;7.22;;
22632;SDS011;11483;55.828;37.488;2023-04-24T06:21:15;17.15;;;8.32;;
22632;SDS011;11483;55.828;37.488;2023-04-24T06:23:42;17.67;;;7.88;;
22632;SDS011;11483;55.828;37.488;2023-04-24T06:26:08;11.98;;;7.00;;
22632;SDS011;11483;55.828;37.488;2023-04-24T06:28:34;19.52;;;8.27;;
22632;SDS011;11483;55.828;37.488;2023-04-24T06:31:00;26.10;;;7.30;;
22632;SDS011;11483;55.828;37.488;2023-04-24T06:33:26;18.98;;;7.25;;
22632;SDS011;11483;55.828;37.488;2023-04-24T06:35:52;20.10;;;7.85;;
22632;SDS011;11483;55.828;37.488;2023-04-24T06:38:18;19.88;;;8.25;;
22632;SDS011;11483;55.828;37.488;2023-04-24T06:40:44;26.00;;;8.48;;
22632;SDS011;11483;55.828;37.488;2023-04-24T06:43:10;22.30;;;7.05;;
22632;SDS011;11483;55.828;37.488;2023-04-24T06:45:36;27.90;;;7.72;;
22632;SDS011;11483;55.828;37.488;2023-04-24T06:48:02;16.27;;;7.60;;
22632;SDS011;11483;55.828;37.488;2023-04-24T06:50:27;12.43;;;6.00;;
22632;SDS011;11483;55.828;37.488;2023-04-24T06:52:53;13.52;;;6.15;;
22632;SDS011;11483;55.828;37.488;2023-04-24T06:55:19;18.13;;;6.50;;
22632;SDS011;11483;55.828;37.488;2023-04-24T06:57:45;17.58;;;6.80;;
22632;SDS011;11483;55.828;37.488;2023-04-24T07:00:11;15.10;;;6.00;;
22632;SDS011;11483;55.828;37.488;2023-04-24T07:02:37;16.05;;;6.50;;
22632;SDS011;11483;55.828;37.488;2023-04-24T07:05:04;14.07;;;5.25;;
22632;SDS011;11483;55.828;37.488;2023-04-24T07:07:30;13.68;;;4.97;;
22632;SDS011;11483;55.828;37.488;2023-04-24T07:09:56;13.48;;;5.28;;
22632;SDS011;11483;55.828;37.488;2023-04-24T07:12:22;21.60;;;5.78;;
22632;SDS011;11483;55.828;37.488;2023-04-24T07:14:48;15.10;;;5.70;;
22632;SDS011;11483;55.828;37.488;2023-04-24T07:17:15;13.05;;;6.07;;
22632;SDS011;11483;55.828;37.488;2023-04-24T07:19:41;12.25;;;5.47;;
22632;SDS011;11483;55.828;37.488;2023-04-24T07:22:07;23.83;;;11.00;;
22632;SDS011;11483;55.828;37.488;2023-04-24T07:24:33;8.15;;;5.20;;
22632;SDS011;11483;55.828;37.488;2023-04-24T07:26:59;13.02;;;5.75;;
22632;SDS011;11483;55.828;37.488;2023-04-24T07:29:28;20.50;;;5.88;;
22632;SDS011;11483;55.828;37.488;2023-04-24T07:31:54;11.73;;;5.53;;
22632;SDS011;11483;55.828;37.488;2023-04-24T07:34:21;13.15;;;5.45;;
22632;SDS011;11483;55.828;37.488;2023-04-24T07:36:47;13.45;;;5.40;;
22632;SDS011;11483;55.828;37.488;2023-04-24T07:39:13;12.52;;;5.63;;
22632;SDS011;11483;55.828;37.488;2023-04-24T07:41:39;13.43;;;5.47;;
22632;SDS011;11483;55.828;37.488;2023-04-24T07:44:05;9.68;;;5.00;;
22632;SDS011;11483;55.828;37.488;2023-04-24T07:46:31;9.05;;;4.68;;
22632;SDS011;11483;55.828;37.488;2023-04-24T07:48:58;8.85;;;4.53;;
22632;SDS011;11483;55.828;37.488;2023-04-24T07:51:26;15.70;;;5.20;;
22632;SDS011;11483;55.828;37.488;2023-04-24T07:53:53;6.97;;;4.53;;
22632;SDS011;11483;55.828;37.488;2023-04-24T07:56:20;8.05;;;4.35;;
22632;SDS011;11483;55.828;37.488;2023-04-24T07:58:46;8.50;;;4.93;;
22632;SDS011;11483;55.828;37.488;2023-04-24T08:01:12;6.10;;;4.07;;
22632;SDS011;11483;55.828;37.488;2023-04-24T08:03:38;14.23;;;4.97;;
22632;SDS011;11483;55.828;37.488;2023-04-24T08:06:04;12.52;;;4.93;;
22632;SDS011;11483;55.828;37.488;2023-04-24T08:08:30;7.95;;;4.60;;
22632;SDS011;11483;55.828;37.488;2023-04-24T08:10:56;9.98;;;4.97;;
22632;SDS011;11483;55.828;37.488;2023-04-24T08:13:22;9.10;;;4.45;;
22632;SDS011;11483;55.828;37.488;2023-04-24T08:15:48;6.88;;;4.60;;
22632;SDS011;11483;55.828;37.488;2023-04-24T08:18:13;13.80;;;7.97;;
22632;SDS011;11483;55.828;37.488;2023-04-24T08:20:41;12.57;;;7.25;;
22632;SDS011;11483;55.828;37.488;2023-04-24T08:23:07;9.98;;;5.13;;
22632;SDS011;11483;55.828;37.488;2023-04-24T08:25:33;14.57;;;5.25;;
22632;SDS011;11483;55.828;37.488;2023-04-24T08:28:01;12.88;;;4.88;;
22632;SDS011;11483;55.828;37.488;2023-04-24T08:30:28;15.88;;;5.57;;
22632;SDS011;11483;55.828;37.488;2023-04-24T08:35:20;8.55;;;5.05;;
22632;SDS011;11483;55.828;37.488;2023-04-24T08:37:48;9.30;;;4.72;;
22632;SDS011;11483;55.828;37.488;2023-04-24T08:40:15;9.50;;;4.68;;
22632;SDS011;11483;55.828;37.488;2023-04-24T08:45:08;7.47;;;5.18;;
22632;SDS011;11483;55.828;37.488;2023-04-24T08:52:30;8.48;;;4.95;;
22632;SDS011;11483;55.828;37.488;2023-04-24T08:54:57;15.18;;;5.53;;
22632;SDS011;11483;55.828;37.488;2023-04-24T08:57:25;12.75;;;5.03;;
22632;SDS011;11483;55.828;37.488;2023-04-24T08:59:51;8.02;;;4.47;;
22632;SDS011;11483;55.828;37.488;2023-04-24T09:02:18;7.45;;;4.88;;
22632;SDS011;11483;55.828;37.488;2023-04-24T09:04:44;9.63;;;4.55;;
22632;SDS011;11483;55.828;37.488;2023-04-24T09:07:12;12.75;;;4.63;;
22632;SDS011;11483;55.828;37.488;2023-04-24T09:09:39;8.50;;;4.85;;
22632;SDS011;11483;55.828;37.488;2023-04-24T09:12:06;9.73;;;4.40;;
22632;SDS011;11483;55.828;37.488;2023-04-24T09:14:35;8.68;;;4.40;;
22632;SDS011;11483;55.828;37.488;2023-04-24T09:17:04;10.80;;;4.40;;
22632;SDS011;11483;55.828;37.488;2023-04-24T09:19:31;13.00;;;4.57;;
22632;SDS011;11483;55.828;37.488;2023-04-24T09:21:57;16.58;;;4.75;;
22632;SDS011;11483;55.828;37.488;2023-04-24T09:24:23;13.00;;;4.65;;
22632;SDS011;11483;55.828;37.488;2023-04-24T09:26:55;9.25;;;4.32;;
22632;SDS011;11483;55.828;37.488;2023-04-24T09:29:26;6.47;;;4.20;;
22632;SDS011;11483;55.828;37.488;2023-04-24T09:31:53;11.65;;;4.60;;
22632;SDS011;11483;55.828;37.488;2023-04-24T09:34:23;10.45;;;4.78;;
22632;SDS011;11483;55.828;37.488;2023-04-24T09:36:50;6.80;;;4.63;;
22632;SDS011;11483;55.828;37.488;2023-04-24T09:39:17;12.10;;;4.85;;
22632;SDS011;11483;55.828;37.488;2023-04-24T09:41:55;9.55;;;4.97;;
22632;SDS011;11483;55.828;37.488;2023-04-24T09:44:26;7.68;;;4.68;;
22632;SDS011;11483;55.828;37.488;2023-04-24T09:46:54;6.35;;;4.30;;
22632;SDS011;11483;55.828;37.488;2023-04-24T09:49:28;9.82;;;4.72;;
22632;SDS011;11483;55.828;37.488;2023-04-24T09:54:31;8.20;;;3.95;;
22632;SDS011;11483;55.828;37.488;2023-04-24T09:56:57;9.57;;;3.95;;
22632;SDS011;11483;55.828;37.488;2023-04-24T09:59:25;6.65;;;4.18;;
22632;SDS011;11483;55.828;37.488;2023-04-24T10:01:50;6.70;;;4.17;;
22632;SDS011;11483;55.828;37.488;2023-04-24T10:04:27;12.65;;;4.25;;
22632;SDS011;11483;55.828;37.488;2023-04-24T10:06:57;8.50;;;4.50;;
22632;SDS011;11483;55.828;37.488;2023-04-24T10:09:25;7.22;;;4.00;;
22632;SDS011;11483;55.828;37.488;2023-04-24T10:11:52;6.22;;;4.38;;
22632;SDS011;11483;55.828;37.488;2023-04-24T10:14:20;11.05;;;4.40;;
22632;SDS011;11483;55.828;37.488;2023-04-24T10:16:48;8.05;;;4.50;;
22632;SDS011;11483;55.828;37.488;2023-04-24T10:19:15;10.70;;;4.55;;
22632;SDS011;11483;55.828;37.488;2023-04-24T10:21:43;8.13;;;4.72;;
22632;SDS011;11483;55.828;37.488;2023-04-24T10:24:17;10.80;;;4.07;;
22632;SDS011;11483;55.828;37.488;2023-04-24T10:26:45;10.38;;;4.68;;
22632;SDS011;11483;55.828;37.488;2023-04-24T10:29:13;6.95;;;4.15;;
22632;SDS011;11483;55.828;37.488;2023-04-24T10:31:40;7.50;;;4.00;;
22632;SDS011;11483;55.828;37.488;2023-04-24T10:34:07;10.77;;;4.13;;
22632;SDS011;11483;55.828;37.488;2023-04-24T10:36:35;4.97;;;3.55;;
22632;SDS011;11483;55.828;37.488;2023-04-24T10:39:06;10.27;;;4.70;;
22632;SDS011;11483;55.828;37.488;2023-04-24T10:41:39;6.82;;;3.95;;
22632;SDS011;11483;55.828;37.488;2023-04-24T10:44:14;7.75;;;3.90;;
22632;SDS011;11483;55.828;37.488;2023-04-24T10:46:45;5.57;;;3.90;;
22632;SDS011;11483;55.828;37.488;2023-04-24T10:49:13;7.43;;;4.20;;
22632;SDS011;11483;55.828;37.488;2023-04-24T10:51:45;8.00;;;3.63;;
22632;SDS011;11483;55.828;37.488;2023-04-24T10:54:27;9.25;;;4.22;;
22632;SDS011;11483;55.828;37.488;2023-04-24T10:59:51;8.52;;;4.13;;
22632;SDS011;11483;55.828;37.488;2023-04-24T11:02:38;6.07;;;4.03;;
22632;SDS011;11483;55.828;37.488;2023-04-24T11:05:05;8.07;;;4.43;;
22632;SDS011;11483;55.828;37.488;2023-04-24T11:10:46;10.43;;;4.30;;
22632;SDS011;11483;55.828;37.488;2023-04-24T11:13:21;7.78;;;3.90;;
22632;SDS011;11483;55.828;37.488;2023-04-24T11:19:06;8.77;;;4.10;;
22632;SDS011;11483;55.828;37.488;2023-04-24T11:34:58;6.30;;;3.83;;
22632;SDS011;11483;55.828;37.488;2023-04-24T11:37:46;6.55;;;4.22;;
22632;SDS011;11483;55.828;37.488;2023-04-24T11:40:14;8.32;;;4.13;;
22632;SDS011;11483;55.828;37.488;2023-04-24T11:42:42;5.90;;;3.85;;
22632;SDS011;11483;55.828;37.488;2023-04-24T11:45:10;10.00;;;3.90;;
22632;SDS011;11483;55.828;37.488;2023-04-24T11:47:38;6.38;;;3.92;;
22632;SDS011;11483;55.828;37.488;2023-04-24T11:50:07;13.27;;;3.80;;
22632;SDS011;11483;55.828;37.488;2023-04-24T12:00:00;7.10;;;4.03;;
22632;SDS011;11483;55.828;37.488;2023-04-24T12:02:26;6.20;;;3.90;;
22632;SDS011;11483;55.828;37.488;2023-04-24T12:04:52;6.82;;;3.22;;
22632;SDS011;11483;55.828;37.488;2023-04-24T12:07:19;11.38;;;3.80;;
22632;SDS011;11483;55.828;37.488;2023-04-24T12:09:46;5.63;;;3.83;;
22632;SDS011;11483;55.828;37.488;2023-04-24T12:12:14;6.03;;;3.70;;
22632;SDS011;11483;55.828;37.488;2023-04-24T12:14:42;8.50;;;4.18;;
22632;SDS011;11483;55.828;37.488;2023-04-24T12:19:34;5.25;;;3.63;;
22632;SDS011;11483;55.828;37.488;2023-04-24T12:22:04;10.23;;;3.40;;
22632;SDS011;11483;55.828;37.488;2023-04-24T12:24:31;7.15;;;3.88;;
22632;SDS011;11483;55.828;37.488;2023-04-24T12:26:57;4.53;;;3.40;;
22632;SDS011;11483;55.828;37.488;2023-04-24T12:29:24;6.97;;;3.80;;
22632;SDS011;11483;55.828;37.488;2023-04-24T12:31:50;7.63;;;3.55;;
22632;SDS011;11483;55.828;37.488;2023-04-24T12:34:17;7.65;;;4.00;;
22632;SDS011;11483;55.828;37.488;2023-04-24T12:36:47;6.20;;;3.35;;
22632;SDS011;11483;55.828;37.488;2023-04-24T12:41:49;10.60;;;3.80;;
22632;SDS011;11483;55.828;37.488;2023-04-24T12:44:19;5.80;;;3.42;;
22632;SDS011;11483;55.828;37.488;2023-04-24T12:46:45;11.32;;;4.43;;
22632;SDS011;11483;55.828;37.488;2023-04-24T12:49:11;8.63;;;3.80;;
22632;SDS011;11483;55.828;37.488;2023-04-24T12:51:37;7.95;;;3.75;;
22632;SDS011;11483;55.828;37.488;2023-04-24T12:54:02;9.93;;;3.78;;
22632;SDS011;11483;55.828;37.488;2023-04-24T12:56:28;5.95;;;3.20;;
22632;SDS011;11483;55.828;37.488;2023-04-24T12:58:54;6.85;;;3.80;;
22632;SDS011;11483;55.828;37.488;2023-04-24T13:01:20;8.57;;;3.42;;
22632;SDS011;11483;55.828;37.488;2023-04-24T13:03:46;8.65;;;3.15;;
22632;SDS011;11483;55.828;37.488;2023-04-24T13:06:12;8.82;;;3.20;;
22632;SDS011;11483;55.828;37.488;2023-04-24T13:08:38;4.65;;;3.03;;
22632;SDS011;11483;55.828;37.488;2023-04-24T13:11:04;7.22;;;3.13;;
22632;SDS011;11483;55.828;37.488;2023-04-24T13:13:30;6.70;;;2.67;;
22632;SDS011;11483;55.828;37.488;2023-04-24T13:15:55;5.75;;;2.83;;
22632;SDS011;11483;55.828;37.488;2023-04-24T13:18:21;12.80;;;3.10;;
22632;SDS011;11483;55.828;37.488;2023-04-24T13:20:47;8.40;;;3.67;;
22632;SDS011;11483;55.828;37.488;2023-04-24T13:23:13;7.93;;;3.25;;
22632;SDS011;11483;55.828;37.488;2023-04-24T13:25:39;9.15;;;3.03;;
22632;SDS011;11483;55.828;37.488;2023-04-24T13:28:06;13.90;;;3.28;;
22632;SDS011;11483;55.828;37.488;2023-04-24T13:30:31;5.13;;;3.40;;
22632;SDS011;11483;55.828;37.488;2023-04-24T13:32:57;4.32;;;3.13;;
22632;SDS011;11483;55.828;37.488;2023-04-24T13:35:23;10.77;;;3.55;;
22632;SDS011;11483;55.828;37.488;2023-04-24T13:37:49;6.28;;;3.30;;
22632;SDS011;11483;55.828;37.488;2023-04-24T13:40:15;5.05;;;3.22;;
22632;SDS011;11483;55.828;37.488;2023-04-24T13:42:41;8.67;;;3.83;;
22632;SDS011;11483;55.828;37.488;2023-04-24T13:45:08;4.90;;;3.00;;
22632;SDS011;11483;55.828;37.488;2023-04-24T13:47:34;9.00;;;3.13;;
22632;SDS011;11483;55.828;37.488;2023-04-24T13:50:01;4.13;;;2.97;;
22632;SDS011;11483;55.828;37.488;2023-04-24T13:52:27;7.57;;;3.28;;
22632;SDS011;11483;55.828;37.488;2023-04-24T13:57:18;7.43;;;3.37;;
22632;SDS011;11483;55.828;37.488;2023-04-24T13:59:45;8.10;;;3.70;;
22632;SDS011;11483;55.828;37.488;2023-04-24T14:02:11;11.02;;;3.38;;
22632;SDS011;11483;55.828;37.488;2023-04-24T14:04:37;7.85;;;3.58;;
22632;SDS011;11483;55.828;37.488;2023-04-24T14:09:28;9.27;;;3.23;;
22632;SDS011;11483;55.828;37.488;2023-04-24T14:11:54;9.00;;;3.20;;
22632;SDS011;11483;55.828;37.488;2023-04-24T14:14:21;9.13;;;3.58;;
22632;SDS011;11483;55.828;37.488;2023-04-24T14:16:46;8.02;;;3.83;;
22632;SDS011;11483;55.828;37.488;2023-04-24T14:19:12;11.40;;;3.72;;
22632;SDS011;11483;55.828;37.488;2023-04-24T14:21:38;12.85;;;3.08;;
22632;SDS011;11483;55.828;37.488;2023-04-24T14:24:04;5.00;;;3.00;;
22632;SDS011;11483;55.828;37.488;2023-04-24T14:31:23;12.07;;;3.30;;
22632;SDS011;11483;55.828;37.488;2023-04-24T14:33:49;8.20;;;3.28;;
22632;SDS011;11483;55.828;37.488;2023-04-24T14:36:15;5.70;;;3.35;;
22632;SDS011;11483;55.828;37.488;2023-04-24T14:38:41;3.88;;;2.90;;
22632;SDS011;11483;55.828;37.488;2023-04-24T14:41:07;6.30;;;2.92;;
22632;SDS011;11483;55.828;37.488;2023-04-24T14:43:35;8.50;;;3.20;;
22632;SDS011;11483;55.828;37.488;2023-04-24T14:46:01;7.25;;;3.25;;
22632;SDS011;11483;55.828;37.488;2023-04-24T14:48:28;11.00;;;6.15;;
22632;SDS011;11483;55.828;37.488;2023-04-24T14:53:20;6.03;;;3.33;;
22632;SDS011;11483;55.828;37.488;2023-04-24T14:55:46;13.73;;;4.47;;
22632;SDS011;11483;55.828;37.488;2023-04-24T14:58:12;5.32;;;3.53;;
22632;SDS011;11483;55.828;37.488;2023-04-24T15:00:38;12.80;;;3.10;;
22632;SDS011;11483;55.828;37.488;2023-04-24T15:03:03;9.27;;;3.45;;
22632;SDS011;11483;55.828;37.488;2023-04-24T15:05:29;10.90;;;3.75;;
22632;SDS011;11483;55.828;37.488;2023-04-24T15:07:55;11.32;;;3.53;;
22632;SDS011;11483;55.828;37.488;2023-04-24T15:10:21;13.38;;;3.60;;
22632;SDS011;11483;55.828;37.488;2023-04-24T15:12:48;10.43;;;3.38;;
22632;SDS011;11483;55.828;37.488;2023-04-24T15:15:14;6.28;;;3.88;;
22632;SDS011;11483;55.828;37.488;2023-04-24T15:17:40;15.98;;;3.72;;
22632;SDS011;11483;55.828;37.488;2023-04-24T15:20:06;11.65;;;3.25;;
22632;SDS011;11483;55.828;37.488;2023-04-24T15:22:33;9.20;;;3.40;;